sensor_id;sensor_type;location;lat;lon;timestamp;P1;durP1;ratioP1;P2;durP2;ratioP2
43664;SDS011;29263;48.172;11.484;2023-08-17T00:01:24;5.07;;;4.22;;
43664;SDS011;29263;48.172;11.484;2023-08-17T00:03:49;6.20;;;4.18;;
43664;SDS011;29263;48.172;11.484;2023-08-17T00:06:15;6.28;;;4.75;;
43664;SDS011;29263;48.172;11.484;2023-08-17T00:08:41;6.85;;;4.40;;
43664;SDS011;29263;48.172;11.484;2023-08-17T00:11:07;6.22;;;4.10;;
43664;SDS011;29263;48.172;11.484;2023-08-17T00:13:33;5.70;;;4.28;;
43664;SDS011;29263;48.172;11.484;2023-08-17T00:15:59;5.50;;;4.53;;
43664;SDS011;29263;48.172;11.484;2023-08-17T00:18:25;5.90;;;4.70;;
43664;SDS011;29263;48.172;11.484;2023-08-17T00:20:51;6.85;;;4.68;;
43664;SDS011;29263;48.172;11.484;2023-08-17T00:23:17;5.43;;;4.82;;
43664;SDS011;29263;48.172;11.484;2023-08-17T00:25:43;6.93;;;5.00;;
43664;SDS011;29263;48.172;11.484;2023-08-17T00:28:08;8.20;;;5.55;;
43664;SDS011;29263;48.172;11.484;2023-08-17T00:30:34;6.15;;;4.78;;
43664;SDS011;29263;48.172;11.484;2023-08-17T00:33:01;9.20;;;5.15;;
43664;SDS011;29263;48.172;11.484;2023-08-17T00:35:27;5.10;;;4.55;;
43664;SDS011;29263;48.172;11.484;2023-08-17T00:37:53;5.47;;;4.88;;
43664;SDS011;29263;48.172;11.484;2023-08-17T00:40:19;5.07;;;4.53;;
43664;SDS011;29263;48.172;11.484;2023-08-17T00:42:44;5.18;;;4.57;;
43664;SDS011;29263;48.172;11.484;2023-08-17T00:45:10;8.07;;;5.25;;
43664;SDS011;29263;48.172;11.484;2023-08-17T00:47:36;5.03;;;4.53;;
43664;SDS011;29263;48.172;11.484;2023-08-17T00:50:02;6.53;;;4.47;;
43664;SDS011;29263;48.172;11.484;2023-08-17T00:52:28;8.45;;;5.20;;
43664;SDS011;29263;48.172;11.484;2023-08-17T00:54:57;9.30;;;5.07;;
43664;SDS011;29263;48.172;11.484;2023-08-17T00:57:24;5.68;;;4.57;;
43664;SDS011;29263;48.172;11.484;2023-08-17T00:59:50;5.25;;;4.43;;
43664;SDS011;29263;48.172;11.484;2023-08-17T01:02:16;6.30;;;4.35;;
43664;SDS011;29263;48.172;11.484;2023-08-17T01:04:42;8.93;;;5.18;;
43664;SDS011;29263;48.172;11.484;2023-08-17T01:07:08;6.47;;;4.80;;
43664;SDS011;29263;48.172;11.484;2023-08-17T01:09:33;6.88;;;4.78;;
43664;SDS011;29263;48.172;11.484;2023-08-17T01:12:43;6.63;;;4.55;;
43664;SDS011;29263;48.172;11.484;2023-08-17T01:17:55;7.97;;;4.53;;
43664;SDS011;29263;48.172;11.484;2023-08-17T01:20:25;5.40;;;4.47;;
43664;SDS011;29263;48.172;11.484;2023-08-17T01:22:52;5.55;;;4.50;;
43664;SDS011;29263;48.172;11.484;2023-08-17T01:25:22;8.80;;;4.47;;
43664;SDS011;29263;48.172;11.484;2023-08-17T01:27:48;6.38;;;4.45;;
43664;SDS011;29263;48.172;11.484;2023-08-17T01:30:15;9.32;;;5.07;;
43664;SDS011;29263;48.172;11.484;2023-08-17T01:38:14;6.40;;;4.50;;
43664;SDS011;29263;48.172;11.484;2023-08-17T01:40:42;5.90;;;5.10;;
43664;SDS011;29263;48.172;11.484;2023-08-17T01:43:10;6.13;;;4.60;;
43664;SDS011;29263;48.172;11.484;2023-08-17T01:45:37;5.55;;;4.30;;
43664;SDS011;29263;48.172;11.484;2023-08-17T01:48:02;7.35;;;4.93;;
43664;SDS011;29263;48.172;11.484;2023-08-17T01:50:28;6.45;;;4.80;;
43664;SDS011;29263;48.172;11.484;2023-08-17T01:52:54;7.53;;;4.57;;
43664;SDS011;29263;48.172;11.484;2023-08-17T01:55:20;4.78;;;4.13;;
43664;SDS011;29263;48.172;11.484;2023-08-17T01:57:47;7.30;;;4.35;;
43664;SDS011;29263;48.172;11.484;2023-08-17T02:00:13;4.88;;;4.38;;
43664;SDS011;29263;48.172;11.484;2023-08-17T02:02:39;6.10;;;4.10;;
43664;SDS011;29263;48.172;11.484;2023-08-17T02:05:04;7.35;;;4.32;;
43664;SDS011;29263;48.172;11.484;2023-08-17T02:07:30;7.65;;;4.80;;
43664;SDS011;29263;48.172;11.484;2023-08-17T02:09:56;5.70;;;4.10;;
43664;SDS011;29263;48.172;11.484;2023-08-17T02:12:21;4.75;;;4.22;;
43664;SDS011;29263;48.172;11.484;2023-08-17T02:14:47;6.50;;;4.10;;
43664;SDS011;29263;48.172;11.484;2023-08-17T02:17:13;7.50;;;4.78;;
43664;SDS011;29263;48.172;11.484;2023-08-17T02:19:41;4.95;;;4.35;;
43664;SDS011;29263;48.172;11.484;2023-08-17T02:22:07;5.63;;;4.57;;
43664;SDS011;29263;48.172;11.484;2023-08-17T02:24:33;6.30;;;4.35;;
43664;SDS011;29263;48.172;11.484;2023-08-17T02:26:58;5.97;;;4.53;;
43664;SDS011;29263;48.172;11.484;2023-08-17T02:29:24;6.38;;;4.70;;
43664;SDS011;29263;48.172;11.484;2023-08-17T02:31:49;6.18;;;4.57;;
43664;SDS011;29263;48.172;11.484;2023-08-17T02:34:15;7.20;;;5.15;;
43664;SDS011;29263;48.172;11.484;2023-08-17T02:36:41;6.85;;;4.78;;
43664;SDS011;29263;48.172;11.484;2023-08-17T02:39:06;5.95;;;4.35;;
43664;SDS011;29263;48.172;11.484;2023-08-17T02:41:32;6.60;;;4.85;;
43664;SDS011;29263;48.172;11.484;2023-08-17T02:43:57;5.63;;;4.90;;
43664;SDS011;29263;48.172;11.484;2023-08-17T02:46:23;9.05;;;5.47;;
43664;SDS011;29263;48.172;11.484;2023-08-17T02:48:49;6.18;;;4.50;;
43664;SDS011;29263;48.172;11.484;2023-08-17T02:51:15;7.18;;;4.80;;
43664;SDS011;29263;48.172;11.484;2023-08-17T02:53:41;6.22;;;4.57;;
43664;SDS011;29263;48.172;11.484;2023-08-17T02:56:06;6.13;;;4.40;;
43664;SDS011;29263;48.172;11.484;2023-08-17T02:58:35;5.63;;;4.70;;
43664;SDS011;29263;48.172;11.484;2023-08-17T03:01:02;5.78;;;4.53;;
43664;SDS011;29263;48.172;11.484;2023-08-17T03:03:28;5.40;;;4.20;;
43664;SDS011;29263;48.172;11.484;2023-08-17T03:05:54;6.47;;;4.50;;
43664;SDS011;29263;48.172;11.484;2023-08-17T03:08:19;6.50;;;4.88;;
43664;SDS011;29263;48.172;11.484;2023-08-17T03:10:45;9.00;;;4.78;;
43664;SDS011;29263;48.172;11.484;2023-08-17T03:13:10;7.72;;;4.55;;
43664;SDS011;29263;48.172;11.484;2023-08-17T03:15:36;6.28;;;4.70;;
43664;SDS011;29263;48.172;11.484;2023-08-17T03:18:04;5.25;;;4.50;;
43664;SDS011;29263;48.172;11.484;2023-08-17T03:20:30;4.50;;;4.07;;
43664;SDS011;29263;48.172;11.484;2023-08-17T03:22:56;4.90;;;4.40;;
43664;SDS011;29263;48.172;11.484;2023-08-17T03:25:22;8.02;;;4.82;;
43664;SDS011;29263;48.172;11.484;2023-08-17T03:27:47;6.95;;;4.38;;
43664;SDS011;29263;48.172;11.484;2023-08-17T03:30:13;5.25;;;4.30;;
43664;SDS011;29263;48.172;11.484;2023-08-17T03:32:39;6.70;;;4.65;;
43664;SDS011;29263;48.172;11.484;2023-08-17T03:35:06;5.85;;;4.45;;
43664;SDS011;29263;48.172;11.484;2023-08-17T03:37:31;7.72;;;5.45;;
43664;SDS011;29263;48.172;11.484;2023-08-17T03:39:57;5.53;;;4.15;;
43664;SDS011;29263;48.172;11.484;2023-08-17T03:42:23;4.63;;;4.22;;
43664;SDS011;29263;48.172;11.484;2023-08-17T03:44:48;5.95;;;4.43;;
43664;SDS011;29263;48.172;11.484;2023-08-17T03:47:14;6.53;;;4.40;;
43664;SDS011;29263;48.172;11.484;2023-08-17T03:49:39;5.97;;;4.68;;
43664;SDS011;29263;48.172;11.484;2023-08-17T03:52:05;6.95;;;4.82;;
43664;SDS011;29263;48.172;11.484;2023-08-17T03:54:31;6.03;;;4.25;;
43664;SDS011;29263;48.172;11.484;2023-08-17T03:56:56;5.57;;;4.82;;
43664;SDS011;29263;48.172;11.484;2023-08-17T03:59:22;6.40;;;4.50;;
43664;SDS011;29263;48.172;11.484;2023-08-17T04:01:47;5.10;;;4.60;;
43664;SDS011;29263;48.172;11.484;2023-08-17T04:04:15;8.18;;;5.70;;
43664;SDS011;29263;48.172;11.484;2023-08-17T04:06:40;7.47;;;5.10;;
43664;SDS011;29263;48.172;11.484;2023-08-17T04:09:06;7.85;;;4.60;;
43664;SDS011;29263;48.172;11.484;2023-08-17T04:11:34;7.55;;;4.55;;
43664;SDS011;29263;48.172;11.484;2023-08-17T04:16:27;5.45;;;4.68;;
43664;SDS011;29263;48.172;11.484;2023-08-17T04:18:52;5.60;;;4.65;;
43664;SDS011;29263;48.172;11.484;2023-08-17T04:21:18;5.18;;;4.53;;
43664;SDS011;29263;48.172;11.484;2023-08-17T04:23:43;7.15;;;4.95;;
43664;SDS011;29263;48.172;11.484;2023-08-17T04:26:09;6.70;;;4.88;;
43664;SDS011;29263;48.172;11.484;2023-08-17T04:28:35;8.55;;;5.35;;
43664;SDS011;29263;48.172;11.484;2023-08-17T04:31:00;6.70;;;5.18;;
43664;SDS011;29263;48.172;11.484;2023-08-17T04:33:26;8.63;;;5.53;;
43664;SDS011;29263;48.172;11.484;2023-08-17T04:35:51;6.50;;;4.93;;
43664;SDS011;29263;48.172;11.484;2023-08-17T04:38:17;6.13;;;4.75;;
43664;SDS011;29263;48.172;11.484;2023-08-17T04:40:42;8.68;;;4.75;;
43664;SDS011;29263;48.172;11.484;2023-08-17T04:43:09;5.70;;;4.63;;
43664;SDS011;29263;48.172;11.484;2023-08-17T04:45:35;7.78;;;5.78;;
43664;SDS011;29263;48.172;11.484;2023-08-17T04:48:01;9.00;;;5.07;;
43664;SDS011;29263;48.172;11.484;2023-08-17T04:50:27;7.22;;;4.97;;
43664;SDS011;29263;48.172;11.484;2023-08-17T04:52:52;10.10;;;5.45;;
43664;SDS011;29263;48.172;11.484;2023-08-17T04:55:18;8.50;;;5.53;;
43664;SDS011;29263;48.172;11.484;2023-08-17T04:57:43;6.75;;;5.07;;
43664;SDS011;29263;48.172;11.484;2023-08-17T05:00:09;7.85;;;5.13;;
43664;SDS011;29263;48.172;11.484;2023-08-17T05:02:36;5.15;;;4.65;;
43664;SDS011;29263;48.172;11.484;2023-08-17T05:05:05;7.32;;;4.90;;
43664;SDS011;29263;48.172;11.484;2023-08-17T05:09:57;5.45;;;4.75;;
43664;SDS011;29263;48.172;11.484;2023-08-17T05:12:23;6.35;;;4.47;;
43664;SDS011;29263;48.172;11.484;2023-08-17T05:14:49;5.75;;;5.15;;
43664;SDS011;29263;48.172;11.484;2023-08-17T05:17:14;7.43;;;5.20;;
43664;SDS011;29263;48.172;11.484;2023-08-17T05:19:40;6.43;;;4.72;;
43664;SDS011;29263;48.172;11.484;2023-08-17T05:22:09;8.13;;;5.18;;
43664;SDS011;29263;48.172;11.484;2023-08-17T05:27:01;6.32;;;4.78;;
43664;SDS011;29263;48.172;11.484;2023-08-17T05:29:27;5.97;;;4.63;;
43664;SDS011;29263;48.172;11.484;2023-08-17T05:31:53;5.05;;;4.43;;
43664;SDS011;29263;48.172;11.484;2023-08-17T05:34:18;5.65;;;4.47;;
43664;SDS011;29263;48.172;11.484;2023-08-17T05:36:44;7.15;;;5.32;;
43664;SDS011;29263;48.172;11.484;2023-08-17T05:39:10;7.60;;;4.65;;
43664;SDS011;29263;48.172;11.484;2023-08-17T05:41:35;7.20;;;4.65;;
43664;SDS011;29263;48.172;11.484;2023-08-17T05:44:01;6.70;;;5.15;;
43664;SDS011;29263;48.172;11.484;2023-08-17T05:46:27;5.53;;;4.47;;
43664;SDS011;29263;48.172;11.484;2023-08-17T05:48:53;7.03;;;5.32;;
43664;SDS011;29263;48.172;11.484;2023-08-17T05:51:18;5.28;;;4.47;;
43664;SDS011;29263;48.172;11.484;2023-08-17T05:53:44;8.82;;;4.75;;
43664;SDS011;29263;48.172;11.484;2023-08-17T05:56:10;6.65;;;4.40;;
43664;SDS011;29263;48.172;11.484;2023-08-17T05:58:35;6.72;;;4.50;;
43664;SDS011;29263;48.172;11.484;2023-08-17T06:01:07;6.20;;;4.20;;
43664;SDS011;29263;48.172;11.484;2023-08-17T06:03:34;4.70;;;4.28;;
43664;SDS011;29263;48.172;11.484;2023-08-17T06:06:01;7.18;;;4.32;;
43664;SDS011;29263;48.172;11.484;2023-08-17T06:08:27;7.25;;;4.30;;
43664;SDS011;29263;48.172;11.484;2023-08-17T06:10:52;4.63;;;4.05;;
43664;SDS011;29263;48.172;11.484;2023-08-17T06:13:18;5.93;;;4.25;;
43664;SDS011;29263;48.172;11.484;2023-08-17T06:15:44;4.68;;;4.18;;
43664;SDS011;29263;48.172;11.484;2023-08-17T06:18:10;5.95;;;4.35;;
43664;SDS011;29263;48.172;11.484;2023-08-17T06:20:35;5.65;;;4.32;;
43664;SDS011;29263;48.172;11.484;2023-08-17T06:23:01;4.45;;;4.03;;
43664;SDS011;29263;48.172;11.484;2023-08-17T06:25:26;5.57;;;4.10;;
43664;SDS011;29263;48.172;11.484;2023-08-17T06:27:52;5.30;;;4.50;;
43664;SDS011;29263;48.172;11.484;2023-08-17T06:30:18;4.25;;;3.85;;
43664;SDS011;29263;48.172;11.484;2023-08-17T06:32:44;6.25;;;3.70;;
43664;SDS011;29263;48.172;11.484;2023-08-17T06:35:09;5.47;;;4.32;;
43664;SDS011;29263;48.172;11.484;2023-08-17T06:37:35;5.30;;;4.25;;
43664;SDS011;29263;48.172;11.484;2023-08-17T06:40:02;4.88;;;4.03;;
43664;SDS011;29263;48.172;11.484;2023-08-17T06:42:28;7.45;;;4.63;;
43664;SDS011;29263;48.172;11.484;2023-08-17T06:44:54;4.65;;;4.03;;
43664;SDS011;29263;48.172;11.484;2023-08-17T06:47:19;4.70;;;4.20;;
43664;SDS011;29263;48.172;11.484;2023-08-17T06:49:45;6.38;;;4.13;;
43664;SDS011;29263;48.172;11.484;2023-08-17T06:52:10;5.32;;;3.80;;
43664;SDS011;29263;48.172;11.484;2023-08-17T06:54:36;7.57;;;4.30;;
43664;SDS011;29263;48.172;11.484;2023-08-17T06:57:02;4.80;;;3.35;;
43664;SDS011;29263;48.172;11.484;2023-08-17T06:59:27;4.35;;;3.72;;
43664;SDS011;29263;48.172;11.484;2023-08-17T07:01:53;4.30;;;3.90;;
43664;SDS011;29263;48.172;11.484;2023-08-17T07:04:18;5.18;;;3.65;;
43664;SDS011;29263;48.172;11.484;2023-08-17T07:06:44;3.63;;;3.33;;
43664;SDS011;29263;48.172;11.484;2023-08-17T07:09:10;4.68;;;3.78;;
43664;SDS011;29263;48.172;11.484;2023-08-17T07:11:37;4.60;;;3.17;;
43664;SDS011;29263;48.172;11.484;2023-08-17T07:14:03;4.13;;;3.60;;
43664;SDS011;29263;48.172;11.484;2023-08-17T07:16:31;6.68;;;3.95;;
43664;SDS011;29263;48.172;11.484;2023-08-17T07:18:57;3.97;;;3.58;;
43664;SDS011;29263;48.172;11.484;2023-08-17T07:21:22;4.03;;;3.63;;
43664;SDS011;29263;48.172;11.484;2023-08-17T07:23:48;4.43;;;3.72;;
43664;SDS011;29263;48.172;11.484;2023-08-17T07:26:15;5.53;;;3.78;;
43664;SDS011;29263;48.172;11.484;2023-08-17T07:28:41;5.78;;;4.18;;
43664;SDS011;29263;48.172;11.484;2023-08-17T07:31:06;4.38;;;3.42;;
43664;SDS011;29263;48.172;11.484;2023-08-17T07:33:32;3.63;;;3.33;;
43664;SDS011;29263;48.172;11.484;2023-08-17T07:35:57;3.97;;;3.40;;
43664;SDS011;29263;48.172;11.484;2023-08-17T07:38:23;4.43;;;3.63;;
43664;SDS011;29263;48.172;11.484;2023-08-17T07:40:49;4.47;;;3.67;;
43664;SDS011;29263;48.172;11.484;2023-08-17T07:43:14;5.47;;;3.55;;
43664;SDS011;29263;48.172;11.484;2023-08-17T07:45:40;4.53;;;3.55;;
43664;SDS011;29263;48.172;11.484;2023-08-17T07:48:06;3.60;;;3.30;;
43664;SDS011;29263;48.172;11.484;2023-08-17T07:50:31;5.53;;;3.92;;
43664;SDS011;29263;48.172;11.484;2023-08-17T07:52:57;4.35;;;3.58;;
43664;SDS011;29263;48.172;11.484;2023-08-17T07:55:23;4.10;;;3.58;;
43664;SDS011;29263;48.172;11.484;2023-08-17T07:57:48;4.53;;;3.80;;
43664;SDS011;29263;48.172;11.484;2023-08-17T08:00:14;7.88;;;3.55;;
43664;SDS011;29263;48.172;11.484;2023-08-17T08:02:40;4.78;;;3.67;;
43664;SDS011;29263;48.172;11.484;2023-08-17T08:05:06;4.47;;;3.78;;
43664;SDS011;29263;48.172;11.484;2023-08-17T08:07:31;5.25;;;3.70;;
43664;SDS011;29263;48.172;11.484;2023-08-17T08:09:57;3.67;;;3.38;;
43664;SDS011;29263;48.172;11.484;2023-08-17T08:12:23;4.50;;;3.30;;
43664;SDS011;29263;48.172;11.484;2023-08-17T08:14:48;4.70;;;3.40;;
43664;SDS011;29263;48.172;11.484;2023-08-17T08:17:16;4.20;;;3.80;;
43664;SDS011;29263;48.172;11.484;2023-08-17T08:19:41;4.90;;;3.90;;
43664;SDS011;29263;48.172;11.484;2023-08-17T08:22:07;5.75;;;3.55;;
43664;SDS011;29263;48.172;11.484;2023-08-17T08:24:32;4.38;;;3.97;;
43664;SDS011;29263;48.172;11.484;2023-08-17T08:26:59;3.80;;;3.50;;
43664;SDS011;29263;48.172;11.484;2023-08-17T08:29:26;6.35;;;3.55;;
43664;SDS011;29263;48.172;11.484;2023-08-17T08:31:52;3.70;;;3.40;;
43664;SDS011;29263;48.172;11.484;2023-08-17T08:34:18;3.80;;;3.50;;
43664;SDS011;29263;48.172;11.484;2023-08-17T08:36:44;4.72;;;3.30;;
43664;SDS011;29263;48.172;11.484;2023-08-17T08:39:09;6.22;;;3.55;;
43664;SDS011;29263;48.172;11.484;2023-08-17T08:41:37;5.78;;;4.25;;
43664;SDS011;29263;48.172;11.484;2023-08-17T08:44:04;4.85;;;3.78;;
43664;SDS011;29263;48.172;11.484;2023-08-17T08:46:30;3.78;;;3.22;;
43664;SDS011;29263;48.172;11.484;2023-08-17T08:48:58;6.97;;;4.07;;
43664;SDS011;29263;48.172;11.484;2023-08-17T08:51:27;4.85;;;3.75;;
43664;SDS011;29263;48.172;11.484;2023-08-17T08:54:00;4.15;;;3.75;;
43664;SDS011;29263;48.172;11.484;2023-08-17T08:56:32;3.50;;;3.20;;
43664;SDS011;29263;48.172;11.484;2023-08-17T08:59:02;5.85;;;3.70;;
43664;SDS011;29263;48.172;11.484;2023-08-17T09:03:58;5.30;;;4.03;;
43664;SDS011;29263;48.172;11.484;2023-08-17T09:06:26;4.07;;;3.63;;
43664;SDS011;29263;48.172;11.484;2023-08-17T09:08:52;4.20;;;3.75;;
43664;SDS011;29263;48.172;11.484;2023-08-17T09:11:18;3.78;;;3.42;;
43664;SDS011;29263;48.172;11.484;2023-08-17T09:13:44;4.60;;;3.15;;
43664;SDS011;29263;48.172;11.484;2023-08-17T09:16:09;6.95;;;3.80;;
43664;SDS011;29263;48.172;11.484;2023-08-17T09:18:35;4.68;;;3.60;;
43664;SDS011;29263;48.172;11.484;2023-08-17T09:21:00;6.38;;;3.78;;
43664;SDS011;29263;48.172;11.484;2023-08-17T09:23:26;4.88;;;3.88;;
43664;SDS011;29263;48.172;11.484;2023-08-17T09:25:52;5.90;;;3.47;;
43664;SDS011;29263;48.172;11.484;2023-08-17T09:28:22;3.40;;;3.10;;
43664;SDS011;29263;48.172;11.484;2023-08-17T09:30:49;4.45;;;3.65;;
43664;SDS011;29263;48.172;11.484;2023-08-17T09:33:25;3.65;;;3.35;;
43664;SDS011;29263;48.172;11.484;2023-08-17T09:35:54;3.67;;;3.38;;
43664;SDS011;29263;48.172;11.484;2023-08-17T09:38:21;4.97;;;4.13;;
43664;SDS011;29263;48.172;11.484;2023-08-17T09:40:47;3.80;;;3.33;;
43664;SDS011;29263;48.172;11.484;2023-08-17T09:43:14;4.15;;;3.47;;
43664;SDS011;29263;48.172;11.484;2023-08-17T09:45:41;4.72;;;3.70;;
43664;SDS011;29263;48.172;11.484;2023-08-17T09:48:14;3.70;;;3.33;;
43664;SDS011;29263;48.172;11.484;2023-08-17T09:50:43;5.72;;;3.85;;
43664;SDS011;29263;48.172;11.484;2023-08-17T09:53:13;4.28;;;3.45;;
43664;SDS011;29263;48.172;11.484;2023-08-17T09:55:43;5.30;;;3.75;;
43664;SDS011;29263;48.172;11.484;2023-08-17T09:58:13;3.88;;;3.45;;
43664;SDS011;29263;48.172;11.484;2023-08-17T10:00:46;4.13;;;3.30;;
43664;SDS011;29263;48.172;11.484;2023-08-17T10:03:14;10.30;;;4.43;;
43664;SDS011;29263;48.172;11.484;2023-08-17T10:05:42;4.13;;;3.65;;
43664;SDS011;29263;48.172;11.484;2023-08-17T10:08:10;3.90;;;3.28;;
43664;SDS011;29263;48.172;11.484;2023-08-17T10:10:38;3.15;;;2.95;;
43664;SDS011;29263;48.172;11.484;2023-08-17T10:13:11;4.72;;;3.30;;
43664;SDS011;29263;48.172;11.484;2023-08-17T10:15:43;4.90;;;3.22;;
43664;SDS011;29263;48.172;11.484;2023-08-17T10:21:01;3.88;;;3.38;;
43664;SDS011;29263;48.172;11.484;2023-08-17T10:23:29;4.75;;;3.75;;
43664;SDS011;29263;48.172;11.484;2023-08-17T10:25:56;4.20;;;3.65;;
43664;SDS011;29263;48.172;11.484;2023-08-17T10:28:22;5.85;;;3.50;;
43664;SDS011;29263;48.172;11.484;2023-08-17T10:30:49;4.93;;;4.20;;
43664;SDS011;29263;48.172;11.484;2023-08-17T10:33:15;4.72;;;4.07;;
43664;SDS011;29263;48.172;11.484;2023-08-17T10:35:42;4.15;;;3.38;;
43664;SDS011;29263;48.172;11.484;2023-08-17T10:38:08;4.13;;;3.70;;
43664;SDS011;29263;48.172;11.484;2023-08-17T10:40:34;6.45;;;4.07;;
43664;SDS011;29263;48.172;11.484;2023-08-17T10:43:01;5.03;;;4.00;;
43664;SDS011;29263;48.172;11.484;2023-08-17T10:45:28;4.50;;;4.00;;
43664;SDS011;29263;48.172;11.484;2023-08-17T10:50:33;5.45;;;4.05;;
43664;SDS011;29263;48.172;11.484;2023-08-17T10:53:11;5.05;;;4.00;;
43664;SDS011;29263;48.172;11.484;2023-08-17T10:55:38;6.72;;;4.53;;
43664;SDS011;29263;48.172;11.484;2023-08-17T10:58:05;4.32;;;3.83;;
43664;SDS011;29263;48.172;11.484;2023-08-17T11:00:37;5.10;;;3.97;;
43664;SDS011;29263;48.172;11.484;2023-08-17T11:03:04;4.53;;;4.05;;
43664;SDS011;29263;48.172;11.484;2023-08-17T11:08:11;5.47;;;4.32;;
43664;SDS011;29263;48.172;11.484;2023-08-17T11:13:28;5.30;;;3.80;;
43664;SDS011;29263;48.172;11.484;2023-08-17T11:15:57;6.60;;;3.60;;
43664;SDS011;29263;48.172;11.484;2023-08-17T11:18:23;6.93;;;3.72;;
43664;SDS011;29263;48.172;11.484;2023-08-17T11:20:48;4.88;;;3.80;;
43664;SDS011;29263;48.172;11.484;2023-08-17T11:23:15;5.45;;;3.72;;
43664;SDS011;29263;48.172;11.484;2023-08-17T11:25:41;4.22;;;3.83;;
43664;SDS011;29263;48.172;11.484;2023-08-17T11:28:08;4.82;;;3.55;;
43664;SDS011;29263;48.172;11.484;2023-08-17T11:30:34;4.13;;;3.65;;
43664;SDS011;29263;48.172;11.484;2023-08-17T11:33:02;6.38;;;4.32;;
43664;SDS011;29263;48.172;11.484;2023-08-17T11:35:28;3.85;;;3.45;;
43664;SDS011;29263;48.172;11.484;2023-08-17T11:37:54;5.10;;;4.28;;
43664;SDS011;29263;48.172;11.484;2023-08-17T11:40:20;4.32;;;4.00;;
43664;SDS011;29263;48.172;11.484;2023-08-17T11:42:45;4.75;;;3.70;;
43664;SDS011;29263;48.172;11.484;2023-08-17T11:45:11;3.92;;;3.40;;
43664;SDS011;29263;48.172;11.484;2023-08-17T11:47:38;5.07;;;3.83;;
43664;SDS011;29263;48.172;11.484;2023-08-17T11:50:05;4.80;;;3.78;;
43664;SDS011;29263;48.172;11.484;2023-08-17T11:52:33;3.97;;;3.65;;
43664;SDS011;29263;48.172;11.484;2023-08-17T11:54:59;4.90;;;3.70;;
43664;SDS011;29263;48.172;11.484;2023-08-17T11:57:25;4.03;;;3.45;;
43664;SDS011;29263;48.172;11.484;2023-08-17T11:59:57;4.75;;;4.10;;
43664;SDS011;29263;48.172;11.484;2023-08-17T12:02:25;3.72;;;3.40;;
43664;SDS011;29263;48.172;11.484;2023-08-17T12:04:51;4.10;;;3.58;;
43664;SDS011;29263;48.172;11.484;2023-08-17T12:07:18;4.88;;;4.13;;
43664;SDS011;29263;48.172;11.484;2023-08-17T12:09:47;3.42;;;3.13;;
43664;SDS011;29263;48.172;11.484;2023-08-17T12:12:17;3.47;;;3.15;;
43664;SDS011;29263;48.172;11.484;2023-08-17T12:14:43;4.93;;;3.40;;
43664;SDS011;29263;48.172;11.484;2023-08-17T12:17:14;5.68;;;4.15;;
43664;SDS011;29263;48.172;11.484;2023-08-17T12:19:43;4.15;;;3.78;;
43664;SDS011;29263;48.172;11.484;2023-08-17T12:22:13;4.60;;;3.55;;
43664;SDS011;29263;48.172;11.484;2023-08-17T12:24:38;4.07;;;3.58;;
43664;SDS011;29263;48.172;11.484;2023-08-17T12:27:05;4.82;;;3.78;;
43664;SDS011;29263;48.172;11.484;2023-08-17T12:29:31;3.63;;;3.33;;
43664;SDS011;29263;48.172;11.484;2023-08-17T12:31:57;3.90;;;3.10;;
43664;SDS011;29263;48.172;11.484;2023-08-17T12:34:24;4.10;;;3.35;;
43664;SDS011;29263;48.172;11.484;2023-08-17T12:36:50;4.57;;;3.45;;
43664;SDS011;29263;48.172;11.484;2023-08-17T12:39:16;3.97;;;3.33;;
43664;SDS011;29263;48.172;11.484;2023-08-17T12:41:41;3.50;;;3.10;;
43664;SDS011;29263;48.172;11.484;2023-08-17T12:44:08;4.20;;;3.38;;
43664;SDS011;29263;48.172;11.484;2023-08-17T12:46:38;3.50;;;3.20;;
43664;SDS011;29263;48.172;11.484;2023-08-17T12:49:06;5.65;;;3.40;;
43664;SDS011;29263;48.172;11.484;2023-08-17T12:51:32;3.95;;;3.20;;
43664;SDS011;29263;48.172;11.484;2023-08-17T12:53:58;3.63;;;3.15;;
43664;SDS011;29263;48.172;11.484;2023-08-17T12:56:24;3.80;;;3.40;;
43664;SDS011;29263;48.172;11.484;2023-08-17T12:58:49;3.83;;;3.15;;
43664;SDS011;29263;48.172;11.484;2023-08-17T13:01:15;3.35;;;3.05;;
43664;SDS011;29263;48.172;11.484;2023-08-17T13:03:41;4.32;;;3.25;;
43664;SDS011;29263;48.172;11.484;2023-08-17T13:06:07;4.55;;;3.05;;
43664;SDS011;29263;48.172;11.484;2023-08-17T13:08:32;7.80;;;3.40;;
43664;SDS011;29263;48.172;11.484;2023-08-17T13:10:58;3.35;;;3.05;;
43664;SDS011;29263;48.172;11.484;2023-08-17T13:13:23;3.10;;;2.80;;
43664;SDS011;29263;48.172;11.484;2023-08-17T13:15:49;3.03;;;2.67;;
43664;SDS011;29263;48.172;11.484;2023-08-17T13:18:14;3.58;;;3.08;;
43664;SDS011;29263;48.172;11.484;2023-08-17T13:20:40;2.90;;;2.60;;
43664;SDS011;29263;48.172;11.484;2023-08-17T13:23:06;3.38;;;2.65;;
43664;SDS011;29263;48.172;11.484;2023-08-17T13:25:32;2.55;;;2.35;;
43664;SDS011;29263;48.172;11.484;2023-08-17T13:27:57;6.10;;;2.75;;
43664;SDS011;29263;48.172;11.484;2023-08-17T13:30:23;3.90;;;2.55;;
43664;SDS011;29263;48.172;11.484;2023-08-17T13:32:49;2.90;;;2.53;;
43664;SDS011;29263;48.172;11.484;2023-08-17T13:35:15;2.50;;;2.13;;
43664;SDS011;29263;48.172;11.484;2023-08-17T13:37:41;3.72;;;2.60;;
43664;SDS011;29263;48.172;11.484;2023-08-17T13:40:06;5.00;;;2.60;;
43664;SDS011;29263;48.172;11.484;2023-08-17T13:42:33;5.22;;;2.38;;
43664;SDS011;29263;48.172;11.484;2023-08-17T13:44:59;2.40;;;2.20;;
43664;SDS011;29263;48.172;11.484;2023-08-17T13:47:25;2.63;;;2.42;;
43664;SDS011;29263;48.172;11.484;2023-08-17T13:49:51;3.05;;;2.70;;
43664;SDS011;29263;48.172;11.484;2023-08-17T13:52:16;4.15;;;2.60;;
43664;SDS011;29263;48.172;11.484;2023-08-17T13:54:42;2.65;;;2.40;;
43664;SDS011;29263;48.172;11.484;2023-08-17T13:57:08;2.67;;;2.40;;
43664;SDS011;29263;48.172;11.484;2023-08-17T13:59:34;3.50;;;3.13;;
43664;SDS011;29263;48.172;11.484;2023-08-17T14:01:59;3.95;;;2.78;;
43664;SDS011;29263;48.172;11.484;2023-08-17T14:04:25;2.80;;;2.55;;
43664;SDS011;29263;48.172;11.484;2023-08-17T14:06:51;2.95;;;2.70;;
43664;SDS011;29263;48.172;11.484;2023-08-17T14:09:17;3.38;;;2.67;;
43664;SDS011;29263;48.172;11.484;2023-08-17T14:11:42;3.70;;;2.30;;
43664;SDS011;29263;48.172;11.484;2023-08-17T14:14:08;2.55;;;2.08;;
43664;SDS011;29263;48.172;11.484;2023-08-17T14:16:34;2.10;;;2.00;;
43664;SDS011;29263;48.172;11.484;2023-08-17T14:19:01;3.78;;;2.20;;
43664;SDS011;29263;48.172;11.484;2023-08-17T14:21:26;2.33;;;1.90;;
43664;SDS011;29263;48.172;11.484;2023-08-17T14:23:52;2.25;;;2.05;;
43664;SDS011;29263;48.172;11.484;2023-08-17T14:26:17;2.30;;;2.10;;
43664;SDS011;29263;48.172;11.484;2023-08-17T14:28:43;4.75;;;2.47;;
43664;SDS011;29263;48.172;11.484;2023-08-17T14:31:09;2.75;;;2.45;;
43664;SDS011;29263;48.172;11.484;2023-08-17T14:33:37;2.50;;;2.30;;
43664;SDS011;29263;48.172;11.484;2023-08-17T14:36:02;3.70;;;3.20;;
43664;SDS011;29263;48.172;11.484;2023-08-17T14:38:28;3.58;;;2.83;;
43664;SDS011;29263;48.172;11.484;2023-08-17T14:40:54;4.70;;;4.20;;
43664;SDS011;29263;48.172;11.484;2023-08-17T14:43:19;5.20;;;4.55;;
43664;SDS011;29263;48.172;11.484;2023-08-17T14:45:45;5.50;;;4.35;;
43664;SDS011;29263;48.172;11.484;2023-08-17T14:48:11;4.65;;;4.25;;
43664;SDS011;29263;48.172;11.484;2023-08-17T14:50:37;5.10;;;3.80;;
43664;SDS011;29263;48.172;11.484;2023-08-17T14:53:03;4.50;;;4.10;;
43664;SDS011;29263;48.172;11.484;2023-08-17T14:55:32;4.57;;;3.50;;
43664;SDS011;29263;48.172;11.484;2023-08-17T14:57:58;4.25;;;3.80;;